Historyczne dane pomiarowe

Dodano dane terminowe – wersja testowa.

Dane z okresu 1951-2019

Wersja bazy: 1.34 [2019-03-16, lista zmian], aktualizacja planowana na 2019-04-15

Dane meteo z obszaru Polski uzyskane na podstawie danych udostępnionych przez Instytut Meteorologii i Gospodarki Wodnej – Państwowy Instytut Badawczy.

 

Wybierz Datę:    

       

TemperaturaWilgotnośćWiatrCiśnienieOpadyŚniegCzas trwania zjawisk
 Stacja t tx tn tng RH VA  wxwx mslp ppp RRR   cm mm wxwxwxwxwxwxwx
1994-08-14 12.4 17.4 10.5 9.1 61.5 8.7 3.5 1.5 0.0 0.0- 918.9 0.0 0.0 0.0- 0.0 9.7 0.3------
1994-08-13 15.4 19.8 12.2 10.3 71.0 12.2 5.6 2.8 0.0 0.0- 915.3 0.1 0.0 0.1- 0.0 7.2 0.3------
1994-08-12 14.3 18.0 12.3 7.9 82.1 13.4 6.4 2.1 0.0 0.0- 913.1 4.5 4.5 0.0- 0.0 1.1 4.2--- 7.0- 0.3
1994-08-11 17.4 22.9 13.5 8.6 78.9 15.5 4.5 1.5 0.0 0.0- 910.8 2.7 2.7 0.0- 0.0 6.0 1.1--- 8.6- 1.1
1994-08-10 17.7 25.6 8.6 3.3 68.8 13.5 2.3 0.9 0.0 0.0- 915.4 0.0 0.0 0.0- 0.0 12.1---- 5.0--
1994-08-09 17.1 21.2 15.5 11.0 82.4 16.0 5.9 0.9 0.0 0.0- 916.8 1.2 1.2 0.0- 0.0 1.5 0.6--- 7.0--
1994-08-08 19.9 26.9 13.0 7.9 71.3 15.8 5.6 1.0 0.0 0.0- 920.6 0.1 0.1 0.0- 0.0 8.0 0.2--- 2.0- 1.7
1994-08-07 19.0 26.0 16.1 12.1 75.1 16.2 5.8 0.5 0.0 0.0- 922.2 1.0 1.0 0.0- 0.0 3.2 1.2----- 4.0
1994-08-06 20.4 27.5 13.0 8.1 63.3 14.5 2.8 1.1 0.0 0.0- 923.0 0.0 0.0 0.0- 0.0 8.0 0.1--- 7.0--
1994-08-05 20.0 26.8 12.8 7.7 65.6 14.5 0.9 1.1 0.0 0.0- 925.0 0.0 0.0 0.0- 0.0 11.7---- 9.0--
1994-08-04 19.1 24.4 13.4 8.4 73.0 15.8 4.8 1.1 0.0 0.0- 924.9 0.0 0.0 0.0- 0.0 6.8---- 3.0--
1994-08-03 19.5 25.4 14.8 9.7 75.6 17.1 4.5 1.0 0.0 0.0- 923.6 0.2 0.0 0.2- 0.0 5.3 1.4--- 8.0- 10.1
1994-08-02 20.9 27.5 13.4 8.6 65.1 15.3 4.1 1.1 0.0 0.0- 920.7 0.0 0.0 0.0- 0.0 7.9------ 1.9
1994-08-01 20.2 29.5 14.4 8.6 67.3 15.1 2.8 1.1 0.0 0.0- 919.5 9.8 9.8 0.0- 0.0 9.0 2.5----- 3.9
1994-07-31 22.0 29.9 13.5 7.5 54.0 13.3 1.1 0.5 0.0 0.0- 920.1 0.0 0.0 0.0- 0.0 12.2---- 7.0--
1994-07-30 22.0 29.3 13.2 7.3 52.1 12.9 1.8 1.0 0.0 0.0- 921.2 0.0 0.0 0.0- 0.0 12.4---- 9.0--
1994-07-29 20.9 28.2 11.9 5.8 51.3 11.9 1.0 0.5 0.0 0.0- 921.8 0.0 0.0 0.0- 0.0 13.1---- 9.0--
1994-07-28 21.0 27.5 13.6 8.6 51.8 12.3 2.3 1.1 0.0 0.0- 921.8 0.0 0.0 0.0- 0.0 12.3---- 12.0--
1994-07-27 20.9 27.8 13.0 7.8 54.4 12.3 2.5 0.8 0.0 0.0- 923.0 0.0 0.0 0.0- 0.0 11.9---- 11.0--
1994-07-26 21.0 27.5 13.2 8.1 58.8 13.8 2.6 0.8 0.0 0.0- 923.6 0.0 0.0 0.0- 0.0 11.4---- 7.0--
1994-07-25 19.6 26.9 11.7 6.8 63.4 14.0 4.1 0.5 0.0 0.0- 922.5 0.0 0.0 0.0- 0.0 7.5---- 9.0--
1994-07-24 18.9 25.2 11.5 6.8 60.8 12.6 3.0 0.8 0.0 0.0- 922.5 0.0 0.0 0.0- 0.0 10.6---- 12.0--
1994-07-23 17.6 24.5 8.5 4.2 60.0 11.4 2.0 1.0 0.0 0.0- 923.1 0.0 0.0 0.0- 0.0 13.0---- 10.0--
1994-07-22 16.9 23.3 8.5 4.2 62.4 11.2 0.8 0.8 0.0 0.0- 922.9 0.0 0.0 0.0- 0.0 13.3---- 13.0--
1994-07-21 15.3 21.9 7.2 3.2 68.3 11.3 0.1 1.3 0.0 0.0- 921.2 0.0 0.0 0.0- 0.0 13.4---- 11.0--
1994-07-20 15.2 19.8 10.2 6.3 70.9 11.9 4.8 0.8 0.0 0.0- 919.3 0.0 0.0 0.0- 0.0 12.2---- 4.0--
1994-07-19 18.1 21.8 14.4 10.9 73.6 14.9 6.4 1.1 0.0 0.0- 918.0 0.0 0.0 0.0- 0.0 5.8-------
1994-07-18 18.7 23.2 14.3 11.7 77.8 16.4 5.6 1.1 0.0 0.0- 920.0 0.0 0.0 0.0- 0.0 10.1 2.7----- 1.4
1994-07-17 17.6 23.7 11.5 7.9 79.8 15.7 4.4 0.6 0.0 0.0- 922.9 5.4 2.3 3.1- 0.0 6.5 2.3----- 2.4
1994-07-16 16.7 23.7 11.3 7.8 86.8 16.3 3.1 0.1 0.0 0.0- 923.5 1.2 1.2 0.0- 0.0 5.0 1.6----- 2.7
1994-07-15 15.2 21.6 9.9 6.2 86.9 14.9 2.9 0.5 0.0 0.0- 923.2 4.3 4.3 0.0- 0.0 5.3 2.4----- 3.7
1994-07-14 17.0 23.1 11.4 7.0 73.0 13.6 6.4 1.1 0.0 0.0- 924.7 8.8 8.0 0.8- 0.0 6.3 3.2--- 6.0- 3.7
1994-07-13 17.3 23.3 9.7 6.0 69.8 13.3 4.5 1.6 0.0 0.0- 924.7 0.0 0.0 0.0- 0.0 10.2 0.1--- 8.0--
1994-07-12 15.8 20.7 10.4 7.2 78.4 13.8 4.4 1.3 0.0 0.0- 925.6 0.0 0.0 0.0- 0.0 8.4---- 5.0--
1994-07-11 14.6 19.3 10.9 7.6 83.3 13.6 7.1 1.1 0.0 0.0- 924.4 0.6 0.0 0.6- 0.0 5.3 1.7------
1994-07-10 11.0 12.9 9.5 7.5 93.0 12.2 8.0 0.9 0.0 0.0- 920.4 9.5 9.4 0.1- 0.0 0.0 11.3------
1994-07-09 12.4 17.9 9.9 5.3 76.1 10.8 7.4 2.1 0.0 0.0- 916.6 9.3 3.3 6.0- 0.0 3.3 4.9------
1994-07-08 14.0 18.8 9.9 7.2 69.6 10.8 4.6 2.4 0.0 0.0- 916.9 0.0 0.0 0.0- 0.0 9.4-------
1994-07-07 14.6 21.6 10.0 6.1 82.9 13.8 6.0 0.1 0.0 0.0- 917.2 15.6 12.6 3.0- 0.0 5.5 7.9--- 5.0--
1994-07-06 17.1 21.7 12.3 8.3 64.4 12.1 4.1 1.1 0.0 0.0- 919.2 0.0 0.0 0.0- 0.0 12.9---- 3.0--
1994-07-05 18.7 23.7 13.2 9.1 61.1 13.0 6.4 0.5 0.0 0.0- 918.5 0.1 0.0 0.1- 0.0 4.3 0.3--- 5.0--
1994-07-04 18.9 25.6 10.0 5.7 56.5 11.5 1.3 1.3 0.0 0.0- 921.0 0.0 0.0 0.0- 0.0 13.6---- 7.0--
1994-07-03 17.0 24.4 7.2 4.0 64.6 11.8 1.4 0.6 0.0 0.0- 921.9 0.0 0.0 0.0- 0.0 13.6---- 12.0--
1994-07-02 15.3 22.2 7.0 3.3 70.1 11.8 0.8 0.8 0.0 0.0- 922.5 0.0 0.0 0.0- 0.0 13.6---- 11.0--
1994-07-01 15.3 19.9 13.0 11.3 78.5 13.4 5.5 0.4 0.0 0.0- 923.5 0.3 0.3 0.0- 0.0 4.8 5.8-- 0.8 4.0--
1994-06-30 19.6 25.1 16.6 13.7 82.3 18.5 6.4 1.0 0.0 0.0- 923.1 7.6 5.2 2.4- 0.0 5.3 5.1----- 4.0
1994-06-29 19.9 27.4 13.2 9.5 78.0 17.8 3.4 0.6 0.0 0.0- 922.9 0.0 0.0 0.0- 0.0 7.4 0.3--- 7.0- 1.8
1994-06-28 21.3 27.4 15.9 12.5 75.9 18.8 4.0 0.6 0.0 0.0- 925.3 0.0 0.0 0.0- 0.0 6.7---- 5.0--
1994-06-27 20.3 28.3 12.8 9.3 70.3 16.4 2.9 1.0 0.0 0.0- 924.5 0.1 0.1 0.0- 0.0 9.6 0.2--- 6.0- 3.8
1994-06-26 18.1 25.9 6.8 3.3 58.9 11.9 1.3 0.9 0.0 0.0- 922.4 0.0 0.0 0.0- 0.0 12.2---- 8.0--
1994-06-25 13.5 21.8 2.1 -1.2 52.6 7.6 0.0 0.6 0.0 0.0- 922.1 0.0 0.0 0.0- 0.0 13.8---- 14.0--
1994-06-24 11.9 18.1 5.6 2.3 56.5 7.5 1.3 1.8 0.0 0.0- 922.4 0.0 0.0 0.0- 0.0 13.6---- 11.0--
1994-06-23 14.5 20.2 11.1 9.6 71.8 11.9 6.5 2.5 0.0 0.0- 922.3 0.4 0.4 0.0- 0.0 6.3 2.3--- 1.0--
1994-06-22 17.1 23.9 7.4 4.7 64.1 12.3 4.6 2.0 0.0 0.0- 922.2 1.4 0.0 1.4- 0.0 9.5 0.2--- 7.0--
1994-06-21 13.9 18.2 8.1 5.2 63.6 9.8 3.6 0.9 0.0 0.0- 920.8 0.0 0.0 0.0- 0.0 13.3---- 10.0--
1994-06-20 15.0 20.5 9.5 5.8 71.4 12.0 4.4 1.6 0.0 0.0- 916.3 0.0 0.0 0.0- 0.0 10.6-------
1994-06-19 15.8 22.2 8.6 7.6 66.1 11.2 5.8 2.5 0.0 0.0- 915.0 0.3 0.3 0.0- 0.0 7.9 3.2------
1994-06-18 10.5 16.9 2.4 0.4 70.6 8.8 6.8 2.3 0.0 0.0- 918.2 9.2 0.0 9.2- 0.0 7.8 2.1----- 1.0
1994-06-17 7.9 11.8 5.5 4.6 85.4 9.1 7.3 1.3 0.0 0.0- 914.4 3.9 3.9 0.0- 0.0 1.0 6.1------
1994-06-16 11.0 15.2 5.3 2.7 68.5 8.9 5.3 2.3 0.0 0.0- 913.7 3.8 0.0 3.8- 0.0 4.7-------
332.3 ms

 

Źródłem pochodzenia danych jest Instytut Meteorologii i Gospodarki Wodnej – Państwowy Instytut Badawczy. Dane Instytutu Meteorologii i Gospodarki Wodnej – Państwowego Instytutu Badawczego zostały przetworzone.

Dane źródłowe można odnaleźć na stronie https://dane.imgw.pl